sensor_id;sensor_type;location;lat;lon;timestamp;P1;durP1;ratioP1;P2;durP2;ratioP2
38557;SDS011;24333;42.626;23.308;2023-07-31T00:00:15;4.38;;;2.53;;
38557;SDS011;24333;42.626;23.308;2023-07-31T00:05:16;4.15;;;2.78;;
38557;SDS011;24333;42.626;23.308;2023-07-31T00:07:42;6.90;;;2.60;;
38557;SDS011;24333;42.626;23.308;2023-07-31T00:10:08;7.07;;;3.42;;
38557;SDS011;24333;42.626;23.308;2023-07-31T02:42:59;24.50;;;12.45;;
38557;SDS011;24333;42.626;23.308;2023-07-31T02:45:25;27.23;;;13.68;;
38557;SDS011;24333;42.626;23.308;2023-07-31T02:47:51;26.05;;;12.98;;
38557;SDS011;24333;42.626;23.308;2023-07-31T02:50:16;29.23;;;13.57;;
38557;SDS011;24333;42.626;23.308;2023-07-31T02:55:13;27.50;;;12.82;;
38557;SDS011;24333;42.626;23.308;2023-07-31T02:57:39;25.00;;;12.07;;
38557;SDS011;24333;42.626;23.308;2023-07-31T03:02:43;25.92;;;13.68;;
38557;SDS011;24333;42.626;23.308;2023-07-31T03:05:08;29.52;;;12.18;;
38557;SDS011;24333;42.626;23.308;2023-07-31T03:10:09;23.67;;;12.38;;
38557;SDS011;24333;42.626;23.308;2023-07-31T03:12:40;24.83;;;12.70;;
38557;SDS011;24333;42.626;23.308;2023-07-31T03:15:11;24.20;;;11.98;;
38557;SDS011;24333;42.626;23.308;2023-07-31T03:17:36;23.75;;;11.48;;
38557;SDS011;24333;42.626;23.308;2023-07-31T03:53:39;24.27;;;11.70;;
38557;SDS011;24333;42.626;23.308;2023-07-31T03:56:23;24.42;;;11.95;;
38557;SDS011;24333;42.626;23.308;2023-07-31T04:01:28;27.15;;;12.82;;
38557;SDS011;24333;42.626;23.308;2023-07-31T05:51:30;7.57;;;4.18;;
38557;SDS011;24333;42.626;23.308;2023-07-31T05:53:56;9.25;;;4.20;;
38557;SDS011;24333;42.626;23.308;2023-07-31T05:56:22;9.23;;;5.05;;
38557;SDS011;24333;42.626;23.308;2023-07-31T05:58:48;7.55;;;3.75;;
38557;SDS011;24333;42.626;23.308;2023-07-31T06:01:15;9.43;;;4.32;;
38557;SDS011;24333;42.626;23.308;2023-07-31T06:03:42;7.78;;;4.20;;
38557;SDS011;24333;42.626;23.308;2023-07-31T06:06:07;8.88;;;4.30;;
38557;SDS011;24333;42.626;23.308;2023-07-31T06:08:33;7.10;;;4.13;;
38557;SDS011;24333;42.626;23.308;2023-07-31T06:11:02;7.45;;;4.43;;
38557;SDS011;24333;42.626;23.308;2023-07-31T06:13:29;7.55;;;3.65;;
38557;SDS011;24333;42.626;23.308;2023-07-31T06:15:58;6.03;;;3.58;;
38557;SDS011;24333;42.626;23.308;2023-07-31T06:18:25;5.25;;;3.22;;
38557;SDS011;24333;42.626;23.308;2023-07-31T06:20:51;7.38;;;3.92;;
38557;SDS011;24333;42.626;23.308;2023-07-31T06:23:18;5.10;;;3.03;;
38557;SDS011;24333;42.626;23.308;2023-07-31T06:25:45;6.22;;;3.28;;
38557;SDS011;24333;42.626;23.308;2023-07-31T06:28:11;5.20;;;3.35;;
38557;SDS011;24333;42.626;23.308;2023-07-31T06:30:38;6.25;;;3.25;;
38557;SDS011;24333;42.626;23.308;2023-07-31T06:33:04;6.53;;;3.08;;
38557;SDS011;24333;42.626;23.308;2023-07-31T06:35:29;4.30;;;2.55;;
38557;SDS011;24333;42.626;23.308;2023-07-31T06:37:55;3.40;;;2.30;;
38557;SDS011;24333;42.626;23.308;2023-07-31T06:40:21;3.45;;;2.42;;
38557;SDS011;24333;42.626;23.308;2023-07-31T06:42:49;4.80;;;2.42;;
38557;SDS011;24333;42.626;23.308;2023-07-31T06:45:14;3.53;;;2.25;;
38557;SDS011;24333;42.626;23.308;2023-07-31T06:47:40;3.53;;;2.10;;
38557;SDS011;24333;42.626;23.308;2023-07-31T06:50:05;5.95;;;2.22;;
38557;SDS011;24333;42.626;23.308;2023-07-31T06:55:51;4.65;;;2.50;;
38557;SDS011;24333;42.626;23.308;2023-07-31T06:58:18;3.75;;;1.77;;
38557;SDS011;24333;42.626;23.308;2023-07-31T07:00:43;2.60;;;1.63;;
38557;SDS011;24333;42.626;23.308;2023-07-31T07:03:09;5.82;;;2.33;;
38557;SDS011;24333;42.626;23.308;2023-07-31T07:05:34;3.40;;;1.77;;
38557;SDS011;24333;42.626;23.308;2023-07-31T07:08:00;3.42;;;1.88;;
38557;SDS011;24333;42.626;23.308;2023-07-31T07:10:25;2.78;;;2.00;;
38557;SDS011;24333;42.626;23.308;2023-07-31T07:13:02;3.90;;;1.80;;
38557;SDS011;24333;42.626;23.308;2023-07-31T07:15:28;3.63;;;2.05;;
38557;SDS011;24333;42.626;23.308;2023-07-31T07:17:54;4.68;;;1.95;;
38557;SDS011;24333;42.626;23.308;2023-07-31T07:20:20;3.47;;;1.80;;
38557;SDS011;24333;42.626;23.308;2023-07-31T07:22:45;3.63;;;1.67;;
38557;SDS011;24333;42.626;23.308;2023-07-31T07:25:10;3.17;;;1.95;;
38557;SDS011;24333;42.626;23.308;2023-07-31T07:27:37;3.05;;;1.83;;
38557;SDS011;24333;42.626;23.308;2023-07-31T07:30:03;2.10;;;1.50;;
38557;SDS011;24333;42.626;23.308;2023-07-31T07:32:29;2.38;;;1.55;;
38557;SDS011;24333;42.626;23.308;2023-07-31T07:34:55;4.25;;;1.60;;
38557;SDS011;24333;42.626;23.308;2023-07-31T07:37:21;2.05;;;1.30;;
38557;SDS011;24333;42.626;23.308;2023-07-31T07:40:02;2.75;;;1.77;;
38557;SDS011;24333;42.626;23.308;2023-07-31T07:42:27;1.63;;;1.25;;
38557;SDS011;24333;42.626;23.308;2023-07-31T07:44:54;3.72;;;1.60;;
38557;SDS011;24333;42.626;23.308;2023-07-31T07:47:19;2.15;;;1.38;;
38557;SDS011;24333;42.626;23.308;2023-07-31T07:49:48;5.50;;;1.45;;
38557;SDS011;24333;42.626;23.308;2023-07-31T07:52:40;2.45;;;1.33;;
38557;SDS011;24333;42.626;23.308;2023-07-31T07:55:31;2.97;;;1.42;;
38557;SDS011;24333;42.626;23.308;2023-07-31T07:57:57;1.98;;;1.30;;
38557;SDS011;24333;42.626;23.308;2023-07-31T08:00:27;3.33;;;1.33;;
38557;SDS011;24333;42.626;23.308;2023-07-31T08:03:02;6.95;;;1.45;;
38557;SDS011;24333;42.626;23.308;2023-07-31T08:09:06;1.40;;;1.10;;
38557;SDS011;24333;42.626;23.308;2023-07-31T08:11:32;3.40;;;1.90;;
38557;SDS011;24333;42.626;23.308;2023-07-31T08:14:00;4.95;;;2.00;;
38557;SDS011;24333;42.626;23.308;2023-07-31T08:16:26;2.55;;;1.52;;
38557;SDS011;24333;42.626;23.308;2023-07-31T08:18:54;1.40;;;1.13;;
38557;SDS011;24333;42.626;23.308;2023-07-31T08:21:35;1.77;;;1.27;;
38557;SDS011;24333;42.626;23.308;2023-07-31T08:24:29;1.63;;;1.30;;
38557;SDS011;24333;42.626;23.308;2023-07-31T08:27:05;2.33;;;1.70;;
38557;SDS011;24333;42.626;23.308;2023-07-31T08:32:24;1.88;;;1.38;;
38557;SDS011;24333;42.626;23.308;2023-07-31T08:37:35;1.55;;;1.10;;
38557;SDS011;24333;42.626;23.308;2023-07-31T08:40:03;2.78;;;1.48;;
38557;SDS011;24333;42.626;23.308;2023-07-31T08:42:32;2.17;;;1.33;;
38557;SDS011;24333;42.626;23.308;2023-07-31T08:44:58;2.85;;;1.58;;
38557;SDS011;24333;42.626;23.308;2023-07-31T08:47:25;5.28;;;1.77;;
38557;SDS011;24333;42.626;23.308;2023-07-31T08:49:52;2.38;;;1.20;;
38557;SDS011;24333;42.626;23.308;2023-07-31T08:52:19;4.03;;;1.42;;
38557;SDS011;24333;42.626;23.308;2023-07-31T08:54:44;2.40;;;1.27;;
38557;SDS011;24333;42.626;23.308;2023-07-31T08:57:10;1.92;;;1.30;;
38557;SDS011;24333;42.626;23.308;2023-07-31T08:59:36;2.45;;;1.40;;
38557;SDS011;24333;42.626;23.308;2023-07-31T09:02:05;2.50;;;1.30;;
38557;SDS011;24333;42.626;23.308;2023-07-31T09:04:33;2.10;;;1.40;;
38557;SDS011;24333;42.626;23.308;2023-07-31T09:07:02;2.38;;;1.50;;
38557;SDS011;24333;42.626;23.308;2023-07-31T09:09:30;2.38;;;1.33;;
38557;SDS011;24333;42.626;23.308;2023-07-31T09:11:57;2.45;;;1.17;;
38557;SDS011;24333;42.626;23.308;2023-07-31T09:14:23;2.50;;;1.40;;
38557;SDS011;24333;42.626;23.308;2023-07-31T09:16:54;1.65;;;1.30;;
38557;SDS011;24333;42.626;23.308;2023-07-31T09:19:34;1.85;;;0.98;;
38557;SDS011;24333;42.626;23.308;2023-07-31T09:22:02;2.25;;;1.20;;
38557;SDS011;24333;42.626;23.308;2023-07-31T09:27:13;1.40;;;1.00;;
38557;SDS011;24333;42.626;23.308;2023-07-31T09:29:39;3.47;;;1.25;;
38557;SDS011;24333;42.626;23.308;2023-07-31T09:32:04;1.98;;;1.35;;
38557;SDS011;24333;42.626;23.308;2023-07-31T09:34:31;3.00;;;1.50;;
38557;SDS011;24333;42.626;23.308;2023-07-31T09:37:05;3.45;;;1.30;;
38557;SDS011;24333;42.626;23.308;2023-07-31T09:39:35;2.85;;;1.52;;
38557;SDS011;24333;42.626;23.308;2023-07-31T09:42:12;1.50;;;1.15;;
38557;SDS011;24333;42.626;23.308;2023-07-31T09:44:39;2.90;;;1.13;;
38557;SDS011;24333;42.626;23.308;2023-07-31T09:47:20;3.80;;;1.65;;
38557;SDS011;24333;42.626;23.308;2023-07-31T09:49:48;2.55;;;1.42;;
38557;SDS011;24333;42.626;23.308;2023-07-31T09:52:14;2.25;;;1.50;;
38557;SDS011;24333;42.626;23.308;2023-07-31T11:00:27;1.77;;;1.10;;
38557;SDS011;24333;42.626;23.308;2023-07-31T11:05:40;1.65;;;1.13;;
38557;SDS011;24333;42.626;23.308;2023-07-31T11:08:10;1.92;;;1.10;;
38557;SDS011;24333;42.626;23.308;2023-07-31T11:10:39;1.88;;;0.93;;
38557;SDS011;24333;42.626;23.308;2023-07-31T17:24:13;1.77;;;1.02;;
38557;SDS011;24333;42.626;23.308;2023-07-31T17:26:38;1.88;;;0.75;;
38557;SDS011;24333;42.626;23.308;2023-07-31T17:29:04;1.23;;;0.98;;
38557;SDS011;24333;42.626;23.308;2023-07-31T17:57:22;2.00;;;1.20;;
38557;SDS011;24333;42.626;23.308;2023-07-31T17:59:48;2.00;;;1.30;;
38557;SDS011;24333;42.626;23.308;2023-07-31T18:02:13;1.55;;;0.90;;
38557;SDS011;24333;42.626;23.308;2023-07-31T18:04:39;3.03;;;1.02;;
38557;SDS011;24333;42.626;23.308;2023-07-31T18:07:05;1.75;;;1.00;;
38557;SDS011;24333;42.626;23.308;2023-07-31T18:09:31;1.55;;;1.05;;
38557;SDS011;24333;42.626;23.308;2023-07-31T18:11:59;2.70;;;1.60;;
38557;SDS011;24333;42.626;23.308;2023-07-31T18:14:25;1.92;;;1.15;;
38557;SDS011;24333;42.626;23.308;2023-07-31T18:16:53;1.33;;;0.90;;
38557;SDS011;24333;42.626;23.308;2023-07-31T18:19:19;1.50;;;1.10;;
38557;SDS011;24333;42.626;23.308;2023-07-31T18:21:44;1.35;;;0.70;;
38557;SDS011;24333;42.626;23.308;2023-07-31T18:24:10;2.35;;;1.00;;
38557;SDS011;24333;42.626;23.308;2023-07-31T18:26:38;1.13;;;0.90;;
38557;SDS011;24333;42.626;23.308;2023-07-31T18:29:04;2.08;;;1.10;;
38557;SDS011;24333;42.626;23.308;2023-07-31T18:31:31;1.10;;;1.00;;
38557;SDS011;24333;42.626;23.308;2023-07-31T18:33:57;1.33;;;1.00;;
38557;SDS011;24333;42.626;23.308;2023-07-31T18:36:23;2.45;;;1.27;;
38557;SDS011;24333;42.626;23.308;2023-07-31T18:38:48;2.67;;;0.80;;
38557;SDS011;24333;42.626;23.308;2023-07-31T18:41:14;2.30;;;1.42;;
38557;SDS011;24333;42.626;23.308;2023-07-31T18:43:40;2.45;;;1.30;;
38557;SDS011;24333;42.626;23.308;2023-07-31T18:46:08;4.70;;;1.40;;
38557;SDS011;24333;42.626;23.308;2023-07-31T18:48:34;3.08;;;1.40;;
38557;SDS011;24333;42.626;23.308;2023-07-31T18:50:59;2.00;;;1.45;;
38557;SDS011;24333;42.626;23.308;2023-07-31T18:53:25;1.85;;;1.30;;
38557;SDS011;24333;42.626;23.308;2023-07-31T18:55:51;2.45;;;1.25;;
38557;SDS011;24333;42.626;23.308;2023-07-31T18:58:16;1.88;;;1.20;;
38557;SDS011;24333;42.626;23.308;2023-07-31T19:00:48;1.35;;;1.15;;
38557;SDS011;24333;42.626;23.308;2023-07-31T19:03:13;1.40;;;1.20;;
38557;SDS011;24333;42.626;23.308;2023-07-31T19:05:39;1.35;;;1.10;;
38557;SDS011;24333;42.626;23.308;2023-07-31T19:52:50;1.52;;;1.13;;
38557;SDS011;24333;42.626;23.308;2023-07-31T19:55:16;1.70;;;1.17;;
38557;SDS011;24333;42.626;23.308;2023-07-31T19:57:41;1.48;;;1.05;;
38557;SDS011;24333;42.626;23.308;2023-07-31T20:00:07;2.33;;;1.10;;
38557;SDS011;24333;42.626;23.308;2023-07-31T20:02:33;1.35;;;1.00;;
38557;SDS011;24333;42.626;23.308;2023-07-31T20:04:58;4.63;;;1.00;;
38557;SDS011;24333;42.626;23.308;2023-07-31T20:07:26;1.80;;;1.10;;
38557;SDS011;24333;42.626;23.308;2023-07-31T20:09:52;1.23;;;0.95;;
38557;SDS011;24333;42.626;23.308;2023-07-31T20:12:26;1.35;;;1.02;;
38557;SDS011;24333;42.626;23.308;2023-07-31T20:14:53;1.77;;;1.00;;
38557;SDS011;24333;42.626;23.308;2023-07-31T20:17:20;3.20;;;0.80;;
38557;SDS011;24333;42.626;23.308;2023-07-31T20:19:46;2.22;;;1.27;;
38557;SDS011;24333;42.626;23.308;2023-07-31T20:22:14;4.38;;;1.35;;
38557;SDS011;24333;42.626;23.308;2023-07-31T20:24:41;1.98;;;1.20;;
38557;SDS011;24333;42.626;23.308;2023-07-31T20:27:07;1.38;;;0.93;;
38557;SDS011;24333;42.626;23.308;2023-07-31T20:29:33;1.50;;;1.10;;
38557;SDS011;24333;42.626;23.308;2023-07-31T20:31:58;1.20;;;0.90;;
38557;SDS011;24333;42.626;23.308;2023-07-31T20:34:23;1.73;;;1.17;;
38557;SDS011;24333;42.626;23.308;2023-07-31T20:36:49;2.53;;;1.30;;
38557;SDS011;24333;42.626;23.308;2023-07-31T20:39:14;1.55;;;0.93;;
38557;SDS011;24333;42.626;23.308;2023-07-31T20:41:40;1.20;;;1.02;;
38557;SDS011;24333;42.626;23.308;2023-07-31T20:44:05;3.08;;;1.17;;
38557;SDS011;24333;42.626;23.308;2023-07-31T20:46:31;1.75;;;0.98;;
38557;SDS011;24333;42.626;23.308;2023-07-31T20:48:56;4.00;;;1.30;;
38557;SDS011;24333;42.626;23.308;2023-07-31T20:51:21;2.05;;;0.80;;
38557;SDS011;24333;42.626;23.308;2023-07-31T20:53:47;1.65;;;0.93;;
38557;SDS011;24333;42.626;23.308;2023-07-31T20:56:16;1.45;;;0.90;;
38557;SDS011;24333;42.626;23.308;2023-07-31T20:58:42;1.70;;;1.25;;
38557;SDS011;24333;42.626;23.308;2023-07-31T21:01:07;1.00;;;0.80;;
38557;SDS011;24333;42.626;23.308;2023-07-31T21:03:33;1.38;;;1.10;;
38557;SDS011;24333;42.626;23.308;2023-07-31T21:05:58;2.70;;;1.40;;
38557;SDS011;24333;42.626;23.308;2023-07-31T21:08:25;3.13;;;1.33;;
38557;SDS011;24333;42.626;23.308;2023-07-31T21:10:51;1.80;;;0.90;;
38557;SDS011;24333;42.626;23.308;2023-07-31T21:13:16;1.63;;;1.10;;
38557;SDS011;24333;42.626;23.308;2023-07-31T21:15:42;1.65;;;1.05;;
38557;SDS011;24333;42.626;23.308;2023-07-31T21:18:08;1.27;;;0.90;;
38557;SDS011;24333;42.626;23.308;2023-07-31T21:20:34;1.52;;;1.10;;
38557;SDS011;24333;42.626;23.308;2023-07-31T21:23:01;1.52;;;1.10;;
38557;SDS011;24333;42.626;23.308;2023-07-31T21:25:34;3.20;;;1.10;;
38557;SDS011;24333;42.626;23.308;2023-07-31T21:28:00;1.52;;;1.25;;
38557;SDS011;24333;42.626;23.308;2023-07-31T21:30:26;1.90;;;1.13;;
38557;SDS011;24333;42.626;23.308;2023-07-31T21:32:51;4.93;;;1.00;;
38557;SDS011;24333;42.626;23.308;2023-07-31T21:35:16;2.75;;;0.90;;
38557;SDS011;24333;42.626;23.308;2023-07-31T21:37:43;3.08;;;1.27;;
38557;SDS011;24333;42.626;23.308;2023-07-31T21:40:08;1.42;;;1.00;;
38557;SDS011;24333;42.626;23.308;2023-07-31T21:42:34;1.65;;;1.00;;
38557;SDS011;24333;42.626;23.308;2023-07-31T21:45:03;3.55;;;1.20;;
38557;SDS011;24333;42.626;23.308;2023-07-31T21:47:29;1.98;;;1.23;;
38557;SDS011;24333;42.626;23.308;2023-07-31T22:57:26;1.63;;;1.10;;
38557;SDS011;24333;42.626;23.308;2023-07-31T22:59:54;3.50;;;1.23;;
38557;SDS011;24333;42.626;23.308;2023-07-31T23:02:21;2.08;;;1.20;;
38557;SDS011;24333;42.626;23.308;2023-07-31T23:04:47;1.95;;;0.95;;
38557;SDS011;24333;42.626;23.308;2023-07-31T23:07:17;2.55;;;1.33;;
38557;SDS011;24333;42.626;23.308;2023-07-31T23:13:03;1.50;;;1.20;;
38557;SDS011;24333;42.626;23.308;2023-07-31T23:15:29;1.33;;;1.00;;
38557;SDS011;24333;42.626;23.308;2023-07-31T23:17:55;2.17;;;1.10;;
38557;SDS011;24333;42.626;23.308;2023-07-31T23:20:27;3.50;;;1.38;;
38557;SDS011;24333;42.626;23.308;2023-07-31T23:22:54;2.42;;;1.05;;
38557;SDS011;24333;42.626;23.308;2023-07-31T23:25:25;2.78;;;1.02;;
38557;SDS011;24333;42.626;23.308;2023-07-31T23:27:51;1.67;;;1.20;;
38557;SDS011;24333;42.626;23.308;2023-07-31T23:30:16;1.92;;;1.30;;
38557;SDS011;24333;42.626;23.308;2023-07-31T23:32:41;2.33;;;1.58;;
38557;SDS011;24333;42.626;23.308;2023-07-31T23:35:07;2.53;;;1.55;;
38557;SDS011;24333;42.626;23.308;2023-07-31T23:37:33;1.90;;;1.30;;
38557;SDS011;24333;42.626;23.308;2023-07-31T23:39:58;1.80;;;1.40;;
38557;SDS011;24333;42.626;23.308;2023-07-31T23:42:23;1.60;;;1.40;;
38557;SDS011;24333;42.626;23.308;2023-07-31T23:44:49;2.90;;;1.60;;
38557;SDS011;24333;42.626;23.308;2023-07-31T23:47:15;2.05;;;1.48;;
38557;SDS011;24333;42.626;23.308;2023-07-31T23:49:40;1.73;;;1.30;;
38557;SDS011;24333;42.626;23.308;2023-07-31T23:52:05;2.60;;;1.45;;
38557;SDS011;24333;42.626;23.308;2023-07-31T23:54:32;2.63;;;1.60;;
38557;SDS011;24333;42.626;23.308;2023-07-31T23:56:57;2.33;;;1.52;;
38557;SDS011;24333;42.626;23.308;2023-07-31T23:59:23;2.83;;;1.40;;
